TAF and METAR

METAR for DAKAR/DIAGNE

GOBD 010900Z 01020KT 8000 NSC 17/14 Q1012 NOSIG
Report created 1. mar 10:00
wind 20 knots from N (010°) visibility 8000 meters No significant clouds. Temperature 17° with dewpoint at 14° (Humidity 82.52%) Pressure 1012 hPa no significant weather change expected the next couple of hours

TAF for DAKAR/DIAGNE

TAF GOBD 010500Z 0106/0212 02016KT 8000 NSC
Report created 1. mar 06:00

between 1. mar 07:00 - 2. mar 13:00

wind 16 knots from NNE (020°) visibility 8000 meters No significant clouds.